sensor_id;sensor_type;location;lat;lon;timestamp;pressure;altitude;pressure_sealevel;temperature;humidity
48790;BME280;41718;51.980;5.734;2022-12-20T00:02:24;101176.66;;;8.87;100.00
48790;BME280;41718;51.980;5.734;2022-12-20T00:07:25;101164.59;;;8.86;100.00
48790;BME280;41718;51.980;5.734;2022-12-20T00:12:27;101179.03;;;8.80;100.00
48790;BME280;41718;51.980;5.734;2022-12-20T00:17:28;101160.75;;;9.03;100.00
48790;BME280;41718;51.980;5.734;2022-12-20T00:22:30;101176.31;;;9.07;100.00
48790;BME280;41718;51.980;5.734;2022-12-20T00:27:31;101165.81;;;9.00;100.00
48790;BME280;41718;51.980;5.734;2022-12-20T00:32:33;101141.44;;;9.22;100.00
48790;BME280;41718;51.980;5.734;2022-12-20T00:37:34;101158.03;;;9.68;100.00
48790;BME280;41718;51.980;5.734;2022-12-20T00:42:36;101152.69;;;9.61;100.00
48790;BME280;41718;51.980;5.734;2022-12-20T00:47:37;101158.75;;;9.61;100.00
48790;BME280;41718;51.980;5.734;2022-12-20T00:52:39;101148.91;;;9.82;100.00
48790;BME280;41718;51.980;5.734;2022-12-20T00:57:40;101163.16;;;9.65;100.00
48790;BME280;41718;51.980;5.734;2022-12-20T01:02:42;101146.78;;;9.65;100.00
48790;BME280;41718;51.980;5.734;2022-12-20T01:07:43;101144.50;;;9.78;100.00
48790;BME280;41718;51.980;5.734;2022-12-20T01:12:45;101141.34;;;9.92;100.00
48790;BME280;41718;51.980;5.734;2022-12-20T01:17:46;101135.75;;;9.72;100.00
48790;BME280;41718;51.980;5.734;2022-12-20T01:22:48;101162.44;;;9.72;100.00
48790;BME280;41718;51.980;5.734;2022-12-20T01:27:50;101158.47;;;9.87;100.00
48790;BME280;41718;51.980;5.734;2022-12-20T01:32:51;101151.59;;;9.87;100.00
48790;BME280;41718;51.980;5.734;2022-12-20T01:37:53;101157.28;;;9.72;100.00
48790;BME280;41718;51.980;5.734;2022-12-20T01:42:54;101158.88;;;9.67;100.00
48790;BME280;41718;51.980;5.734;2022-12-20T01:47:57;101173.69;;;9.38;100.00
48790;BME280;41718;51.980;5.734;2022-12-20T01:53:00;101150.47;;;9.40;100.00
48790;BME280;41718;51.980;5.734;2022-12-20T01:58:07;101142.75;;;9.07;100.00
48790;BME280;41718;51.980;5.734;2022-12-20T02:03:12;101137.84;;;9.16;100.00
48790;BME280;41718;51.980;5.734;2022-12-20T02:08:17;101123.47;;;8.92;100.00
48790;BME280;41718;51.980;5.734;2022-12-20T02:13:37;101122.47;;;8.87;100.00
48790;BME280;41718;51.980;5.734;2022-12-20T02:18:50;101091.22;;;8.75;100.00
48790;BME280;41718;51.980;5.734;2022-12-20T02:24:06;101072.91;;;8.66;100.00
48790;BME280;41718;51.980;5.734;2022-12-20T02:34:32;101073.41;;;8.53;100.00
48790;BME280;41718;51.980;5.734;2022-12-20T02:39:38;101057.84;;;8.49;100.00
48790;BME280;41718;51.980;5.734;2022-12-20T02:44:48;101061.38;;;8.52;100.00
48790;BME280;41718;51.980;5.734;2022-12-20T02:50:09;101044.06;;;8.47;100.00
48790;BME280;41718;51.980;5.734;2022-12-20T02:55:12;101025.13;;;8.45;100.00
48790;BME280;41718;51.980;5.734;2022-12-20T03:00:20;101023.44;;;8.47;100.00
48790;BME280;41718;51.980;5.734;2022-12-20T03:05:23;101017.41;;;8.47;100.00
48790;BME280;41718;51.980;5.734;2022-12-20T03:10:25;101041.38;;;8.44;100.00
48790;BME280;41718;51.980;5.734;2022-12-20T03:15:27;101021.41;;;8.36;100.00
48790;BME280;41718;51.980;5.734;2022-12-20T03:20:28;101017.28;;;8.42;100.00
48790;BME280;41718;51.980;5.734;2022-12-20T03:25:30;101010.06;;;8.31;100.00
48790;BME280;41718;51.980;5.734;2022-12-20T03:30:31;101013.75;;;8.39;100.00
48790;BME280;41718;51.980;5.734;2022-12-20T03:35:33;101005.41;;;8.49;100.00
48790;BME280;41718;51.980;5.734;2022-12-20T03:40:34;101009.84;;;8.53;100.00
48790;BME280;41718;51.980;5.734;2022-12-20T03:45:36;101002.41;;;8.65;100.00
48790;BME280;41718;51.980;5.734;2022-12-20T03:50:37;100999.28;;;8.79;100.00
48790;BME280;41718;51.980;5.734;2022-12-20T03:55:38;100983.47;;;8.65;100.00
48790;BME280;41718;51.980;5.734;2022-12-20T04:00:45;100996.06;;;8.87;100.00
48790;BME280;41718;51.980;5.734;2022-12-20T04:05:47;100992.78;;;8.94;100.00
48790;BME280;41718;51.980;5.734;2022-12-20T04:10:49;100992.25;;;9.08;100.00
48790;BME280;41718;51.980;5.734;2022-12-20T04:16:10;100985.78;;;9.25;100.00
48790;BME280;41718;51.980;5.734;2022-12-20T04:21:12;100995.28;;;9.27;100.00
48790;BME280;41718;51.980;5.734;2022-12-20T04:26:14;100995.88;;;9.16;100.00
48790;BME280;41718;51.980;5.734;2022-12-20T04:31:15;100996.91;;;9.24;100.00
48790;BME280;41718;51.980;5.734;2022-12-20T04:36:24;100984.81;;;9.21;100.00
48790;BME280;41718;51.980;5.734;2022-12-20T04:41:25;100976.84;;;9.51;100.00
48790;BME280;41718;51.980;5.734;2022-12-20T04:46:27;100988.50;;;9.72;100.00
48790;BME280;41718;51.980;5.734;2022-12-20T04:51:29;100993.56;;;9.69;100.00
48790;BME280;41718;51.980;5.734;2022-12-20T04:56:30;101012.00;;;9.86;100.00
48790;BME280;41718;51.980;5.734;2022-12-20T05:01:31;101009.66;;;9.96;100.00
48790;BME280;41718;51.980;5.734;2022-12-20T05:06:33;101008.28;;;9.71;100.00
48790;BME280;41718;51.980;5.734;2022-12-20T05:11:35;100996.88;;;9.62;100.00
48790;BME280;41718;51.980;5.734;2022-12-20T05:16:36;100990.88;;;9.63;100.00
48790;BME280;41718;51.980;5.734;2022-12-20T05:21:38;100989.78;;;9.51;100.00
48790;BME280;41718;51.980;5.734;2022-12-20T05:26:58;100982.41;;;9.70;100.00
48790;BME280;41718;51.980;5.734;2022-12-20T05:31:59;100962.09;;;9.46;100.00
48790;BME280;41718;51.980;5.734;2022-12-20T05:37:01;100955.19;;;9.43;100.00
48790;BME280;41718;51.980;5.734;2022-12-20T05:42:03;100947.88;;;9.24;100.00
48790;BME280;41718;51.980;5.734;2022-12-20T05:47:04;100950.53;;;9.27;100.00
48790;BME280;41718;51.980;5.734;2022-12-20T05:52:06;100933.13;;;9.18;100.00
48790;BME280;41718;51.980;5.734;2022-12-20T05:57:07;100927.16;;;9.21;100.00
48790;BME280;41718;51.980;5.734;2022-12-20T06:02:09;100926.09;;;9.11;100.00
48790;BME280;41718;51.980;5.734;2022-12-20T06:07:11;100927.19;;;9.22;100.00
48790;BME280;41718;51.980;5.734;2022-12-20T06:12:13;100911.56;;;9.16;100.00
48790;BME280;41718;51.980;5.734;2022-12-20T06:17:14;100905.66;;;9.22;100.00
48790;BME280;41718;51.980;5.734;2022-12-20T06:22:16;100902.34;;;9.27;100.00
48790;BME280;41718;51.980;5.734;2022-12-20T06:27:17;100887.84;;;9.34;100.00
48790;BME280;41718;51.980;5.734;2022-12-20T06:32:19;100887.94;;;9.39;100.00
48790;BME280;41718;51.980;5.734;2022-12-20T06:37:21;100897.66;;;9.50;100.00
48790;BME280;41718;51.980;5.734;2022-12-20T06:42:22;100892.38;;;9.44;100.00
48790;BME280;41718;51.980;5.734;2022-12-20T06:47:24;100903.53;;;9.43;100.00
48790;BME280;41718;51.980;5.734;2022-12-20T06:52:25;100899.38;;;9.51;100.00
48790;BME280;41718;51.980;5.734;2022-12-20T06:57:27;100907.88;;;9.46;100.00
48790;BME280;41718;51.980;5.734;2022-12-20T07:02:28;100900.19;;;9.47;100.00
48790;BME280;41718;51.980;5.734;2022-12-20T07:07:30;100910.72;;;9.58;100.00
48790;BME280;41718;51.980;5.734;2022-12-20T07:12:32;100919.72;;;9.77;100.00
48790;BME280;41718;51.980;5.734;2022-12-20T07:17:33;100919.50;;;9.68;100.00
48790;BME280;41718;51.980;5.734;2022-12-20T07:22:35;100919.63;;;9.74;100.00
48790;BME280;41718;51.980;5.734;2022-12-20T07:27:37;100925.09;;;9.89;100.00
48790;BME280;41718;51.980;5.734;2022-12-20T07:32:38;100927.69;;;9.91;100.00
48790;BME280;41718;51.980;5.734;2022-12-20T07:37:40;100922.19;;;9.72;100.00
48790;BME280;41718;51.980;5.734;2022-12-20T07:42:42;100918.84;;;9.78;100.00
48790;BME280;41718;51.980;5.734;2022-12-20T07:47:49;100915.28;;;9.71;100.00
48790;BME280;41718;51.980;5.734;2022-12-20T07:52:50;100921.13;;;9.63;100.00
48790;BME280;41718;51.980;5.734;2022-12-20T07:57:56;100934.88;;;9.60;100.00
48790;BME280;41718;51.980;5.734;2022-12-20T08:03:06;100933.09;;;9.57;100.00
48790;BME280;41718;51.980;5.734;2022-12-20T08:08:09;100950.63;;;9.74;100.00
48790;BME280;41718;51.980;5.734;2022-12-20T08:13:11;100951.25;;;9.61;100.00
48790;BME280;41718;51.980;5.734;2022-12-20T08:18:12;100945.84;;;9.50;100.00
48790;BME280;41718;51.980;5.734;2022-12-20T08:23:14;100938.97;;;9.50;100.00
48790;BME280;41718;51.980;5.734;2022-12-20T08:28:16;100946.78;;;9.53;100.00
48790;BME280;41718;51.980;5.734;2022-12-20T08:33:17;100938.63;;;9.76;100.00
48790;BME280;41718;51.980;5.734;2022-12-20T08:38:19;100931.41;;;9.60;100.00
48790;BME280;41718;51.980;5.734;2022-12-20T08:43:21;100935.09;;;9.71;100.00
48790;BME280;41718;51.980;5.734;2022-12-20T08:48:22;100926.59;;;9.76;100.00
48790;BME280;41718;51.980;5.734;2022-12-20T08:53:24;100935.22;;;9.77;100.00
48790;BME280;41718;51.980;5.734;2022-12-20T08:58:25;100927.25;;;9.68;100.00
48790;BME280;41718;51.980;5.734;2022-12-20T09:03:30;100930.03;;;9.77;100.00
48790;BME280;41718;51.980;5.734;2022-12-20T09:08:36;100944.47;;;9.67;100.00
48790;BME280;41718;51.980;5.734;2022-12-20T09:13:40;100930.50;;;9.57;100.00
48790;BME280;41718;51.980;5.734;2022-12-20T09:18:51;100936.94;;;9.36;100.00
48790;BME280;41718;51.980;5.734;2022-12-20T09:23:56;100929.91;;;9.28;100.00
48790;BME280;41718;51.980;5.734;2022-12-20T09:28:58;100915.75;;;9.11;100.00
48790;BME280;41718;51.980;5.734;2022-12-20T09:33:59;100914.78;;;9.06;100.00
48790;BME280;41718;51.980;5.734;2022-12-20T09:39:01;100911.19;;;8.99;100.00
48790;BME280;41718;51.980;5.734;2022-12-20T09:49:16;100900.28;;;9.11;100.00
48790;BME280;41718;51.980;5.734;2022-12-20T09:54:40;100884.78;;;9.11;100.00
48790;BME280;41718;51.980;5.734;2022-12-20T09:59:44;100875.41;;;9.13;100.00
48790;BME280;41718;51.980;5.734;2022-12-20T10:04:51;100883.81;;;9.06;100.00
48790;BME280;41718;51.980;5.734;2022-12-20T10:15:48;100882.28;;;9.14;100.00
48790;BME280;41718;51.980;5.734;2022-12-20T10:20:57;100881.34;;;9.11;100.00
48790;BME280;41718;51.980;5.734;2022-12-20T10:26:03;100875.09;;;9.01;100.00
48790;BME280;41718;51.980;5.734;2022-12-20T10:31:16;100870.75;;;8.98;100.00
48790;BME280;41718;51.980;5.734;2022-12-20T10:36:27;100864.75;;;8.99;100.00
48790;BME280;41718;51.980;5.734;2022-12-20T10:41:33;100857.78;;;8.95;100.00
48790;BME280;41718;51.980;5.734;2022-12-20T10:46:51;100847.56;;;9.00;100.00
48790;BME280;41718;51.980;5.734;2022-12-20T10:51:57;100849.25;;;8.98;100.00
48790;BME280;41718;51.980;5.734;2022-12-20T10:57:01;100835.50;;;8.97;100.00
48790;BME280;41718;51.980;5.734;2022-12-20T11:02:35;100820.03;;;8.99;100.00
48790;BME280;41718;51.980;5.734;2022-12-20T11:07:55;100820.88;;;8.98;100.00
48790;BME280;41718;51.980;5.734;2022-12-20T11:13:25;100819.50;;;9.14;100.00
48790;BME280;41718;51.980;5.734;2022-12-20T11:29:45;100791.97;;;9.14;100.00
48790;BME280;41718;51.980;5.734;2022-12-20T11:40:33;100779.19;;;9.22;100.00
48790;BME280;41718;51.980;5.734;2022-12-20T11:56:37;100770.59;;;9.23;100.00
48790;BME280;41718;51.980;5.734;2022-12-20T12:02:09;100763.78;;;9.25;100.00
48790;BME280;41718;51.980;5.734;2022-12-20T12:07:17;100763.91;;;9.31;100.00
48790;BME280;41718;51.980;5.734;2022-12-20T12:12:29;100762.22;;;9.35;100.00
48790;BME280;41718;51.980;5.734;2022-12-20T12:17:44;100763.19;;;9.40;100.00
48790;BME280;41718;51.980;5.734;2022-12-20T12:22:48;100751.13;;;9.39;100.00
48790;BME280;41718;51.980;5.734;2022-12-20T12:27:51;100745.88;;;9.36;100.00
48790;BME280;41718;51.980;5.734;2022-12-20T12:32:57;100748.63;;;9.43;100.00
48790;BME280;41718;51.980;5.734;2022-12-20T12:49:03;100732.91;;;9.31;100.00
48790;BME280;41718;51.980;5.734;2022-12-20T13:19:34;100738.09;;;9.33;100.00
48790;BME280;41718;51.980;5.734;2022-12-20T13:30:21;100724.34;;;9.35;100.00
48790;BME280;41718;51.980;5.734;2022-12-20T13:45:42;100722.66;;;9.36;100.00
48790;BME280;41718;51.980;5.734;2022-12-20T13:50:50;100716.63;;;9.35;100.00
48790;BME280;41718;51.980;5.734;2022-12-20T13:55:54;100717.44;;;9.33;100.00
48790;BME280;41718;51.980;5.734;2022-12-20T14:01:22;100707.97;;;9.32;100.00
48790;BME280;41718;51.980;5.734;2022-12-20T14:06:27;100707.06;;;9.29;100.00
48790;BME280;41718;51.980;5.734;2022-12-20T14:11:32;100713.94;;;9.29;100.00
48790;BME280;41718;51.980;5.734;2022-12-20T14:16:33;100707.91;;;9.28;100.00
48790;BME280;41718;51.980;5.734;2022-12-20T14:21:37;100706.28;;;9.35;100.00
48790;BME280;41718;51.980;5.734;2022-12-20T14:26:45;100700.06;;;9.24;100.00
48790;BME280;41718;51.980;5.734;2022-12-20T14:31:51;100697.63;;;9.32;100.00
48790;BME280;41718;51.980;5.734;2022-12-20T14:42:33;100699.16;;;9.20;100.00
48790;BME280;41718;51.980;5.734;2022-12-20T14:47:36;100689.78;;;9.25;100.00
48790;BME280;41718;51.980;5.734;2022-12-20T14:52:40;100688.13;;;9.29;100.00
48790;BME280;41718;51.980;5.734;2022-12-20T14:57:45;100689.63;;;9.18;100.00
48790;BME280;41718;51.980;5.734;2022-12-20T15:03:10;100671.63;;;9.21;100.00
48790;BME280;41718;51.980;5.734;2022-12-20T15:08:18;100663.91;;;9.21;100.00
48790;BME280;41718;51.980;5.734;2022-12-20T15:13:39;100664.75;;;9.20;100.00
48790;BME280;41718;51.980;5.734;2022-12-20T15:18:42;100672.53;;;9.23;100.00
48790;BME280;41718;51.980;5.734;2022-12-20T15:23:49;100666.34;;;9.13;100.00
48790;BME280;41718;51.980;5.734;2022-12-20T15:28:54;100649.09;;;9.11;100.00
48790;BME280;41718;51.980;5.734;2022-12-20T15:33:56;100649.09;;;9.11;100.00
48790;BME280;41718;51.980;5.734;2022-12-20T15:39:02;100649.16;;;9.14;100.00
48790;BME280;41718;51.980;5.734;2022-12-20T15:44:18;100648.16;;;9.07;100.00
48790;BME280;41718;51.980;5.734;2022-12-20T15:49:23;100653.31;;;9.07;100.00
48790;BME280;41718;51.980;5.734;2022-12-20T15:54:33;100648.16;;;9.07;100.00
48790;BME280;41718;51.980;5.734;2022-12-20T15:59:36;100654.88;;;8.97;100.00
48790;BME280;41718;51.980;5.734;2022-12-20T16:04:57;100653.22;;;9.01;100.00
48790;BME280;41718;51.980;5.734;2022-12-20T16:09:59;100651.53;;;9.03;100.00
48790;BME280;41718;51.980;5.734;2022-12-20T16:15:01;100653.31;;;9.07;100.00
48790;BME280;41718;51.980;5.734;2022-12-20T16:20:03;100653.28;;;9.04;100.00
48790;BME280;41718;51.980;5.734;2022-12-20T16:25:08;100661.88;;;9.05;100.00
48790;BME280;41718;51.980;5.734;2022-12-20T16:30:20;100665.28;;;9.02;100.00
48790;BME280;41718;51.980;5.734;2022-12-20T16:35:35;100664.47;;;9.06;100.00
48790;BME280;41718;51.980;5.734;2022-12-20T16:40:40;100670.38;;;8.99;100.00
48790;BME280;41718;51.980;5.734;2022-12-20T16:45:47;100660.84;;;8.95;100.00
48790;BME280;41718;51.980;5.734;2022-12-20T16:50:48;100668.47;;;8.89;100.00
48790;BME280;41718;51.980;5.734;2022-12-20T16:55:50;100671.88;;;8.86;100.00
48790;BME280;41718;51.980;5.734;2022-12-20T17:00:51;100669.28;;;8.86;100.00
48790;BME280;41718;51.980;5.734;2022-12-20T17:05:53;100665.75;;;8.81;100.00
48790;BME280;41718;51.980;5.734;2022-12-20T17:10:57;100663.22;;;8.84;100.00
48790;BME280;41718;51.980;5.734;2022-12-20T17:15:59;100654.63;;;8.84;100.00
48790;BME280;41718;51.980;5.734;2022-12-20T17:21:02;100648.59;;;8.83;100.00
48790;BME280;41718;51.980;5.734;2022-12-20T17:26:13;100641.78;;;8.87;100.00
48790;BME280;41718;51.980;5.734;2022-12-20T17:31:16;100636.66;;;8.90;100.00
48790;BME280;41718;51.980;5.734;2022-12-20T17:36:22;100640.09;;;8.89;100.00
48790;BME280;41718;51.980;5.734;2022-12-20T17:41:31;100640.06;;;8.86;100.00
48790;BME280;41718;51.980;5.734;2022-12-20T17:46:33;100639.13;;;8.82;100.00
48790;BME280;41718;51.980;5.734;2022-12-20T17:51:35;100641.56;;;8.74;100.00
48790;BME280;41718;51.980;5.734;2022-12-20T17:56:36;100645.78;;;8.71;100.00
48790;BME280;41718;51.980;5.734;2022-12-20T18:01:39;100632.88;;;8.69;100.00
48790;BME280;41718;51.980;5.734;2022-12-20T18:06:42;100639.69;;;8.67;100.00
48790;BME280;41718;51.980;5.734;2022-12-20T18:11:47;100644.94;;;8.72;100.00
48790;BME280;41718;51.980;5.734;2022-12-20T18:16:48;100636.28;;;8.68;100.00
48790;BME280;41718;51.980;5.734;2022-12-20T18:21:50;100637.19;;;8.72;100.00
48790;BME280;41718;51.980;5.734;2022-12-20T18:26:52;100643.19;;;8.71;100.00
48790;BME280;41718;51.980;5.734;2022-12-20T18:31:53;100643.94;;;8.65;100.00
48790;BME280;41718;51.980;5.734;2022-12-20T18:36:55;100631.03;;;8.62;100.00
48790;BME280;41718;51.980;5.734;2022-12-20T18:41:59;100644.81;;;8.64;100.00
48790;BME280;41718;51.980;5.734;2022-12-20T18:47:01;100645.66;;;8.65;100.00
48790;BME280;41718;51.980;5.734;2022-12-20T18:52:21;100637.00;;;8.61;100.00
48790;BME280;41718;51.980;5.734;2022-12-20T18:57:48;100639.63;;;8.63;100.00
48790;BME280;41718;51.980;5.734;2022-12-20T19:02:52;100631.78;;;8.58;100.00
48790;BME280;41718;51.980;5.734;2022-12-20T19:07:54;100639.53;;;8.58;100.00
48790;BME280;41718;51.980;5.734;2022-12-20T19:12:57;100637.84;;;8.60;100.00
48790;BME280;41718;51.980;5.734;2022-12-20T19:18:06;100646.34;;;8.56;100.00
48790;BME280;41718;51.980;5.734;2022-12-20T19:23:07;100637.78;;;8.57;100.00
48790;BME280;41718;51.980;5.734;2022-12-20T19:28:12;100634.25;;;8.52;100.00
48790;BME280;41718;51.980;5.734;2022-12-20T19:33:14;100639.50;;;8.57;100.00
48790;BME280;41718;51.980;5.734;2022-12-20T19:38:16;100638.50;;;8.50;100.00
48790;BME280;41718;51.980;5.734;2022-12-20T19:43:18;100637.81;;;8.59;100.00
48790;BME280;41718;51.980;5.734;2022-12-20T19:48:19;100631.69;;;8.52;100.00
48790;BME280;41718;51.980;5.734;2022-12-20T19:53:24;100644.50;;;8.49;100.00
48790;BME280;41718;51.980;5.734;2022-12-20T19:58:29;100648.00;;;8.53;100.00
48790;BME280;41718;51.980;5.734;2022-12-20T20:03:32;100640.19;;;8.49;100.00
48790;BME280;41718;51.980;5.734;2022-12-20T20:08:38;100650.38;;;8.43;100.00
48790;BME280;41718;51.980;5.734;2022-12-20T20:13:40;100652.13;;;8.44;100.00
48790;BME280;41718;51.980;5.734;2022-12-20T20:18:42;100653.06;;;8.46;100.00
48790;BME280;41718;51.980;5.734;2022-12-20T20:23:46;100647.03;;;8.46;100.00
48790;BME280;41718;51.980;5.734;2022-12-20T20:28:48;100642.63;;;8.42;100.00
48790;BME280;41718;51.980;5.734;2022-12-20T20:33:50;100642.72;;;8.46;100.00
48790;BME280;41718;51.980;5.734;2022-12-20T20:38:52;100652.09;;;8.43;100.00
48790;BME280;41718;51.980;5.734;2022-12-20T20:43:54;100643.66;;;8.50;100.00
48790;BME280;41718;51.980;5.734;2022-12-20T20:48:57;100637.47;;;8.42;100.00
48790;BME280;41718;51.980;5.734;2022-12-20T20:53:58;100635.00;;;8.46;100.00
48790;BME280;41718;51.980;5.734;2022-12-20T20:59:01;100628.94;;;8.44;100.00
48790;BME280;41718;51.980;5.734;2022-12-20T21:04:10;100635.84;;;8.45;100.00
48790;BME280;41718;51.980;5.734;2022-12-20T21:09:19;100647.78;;;8.40;100.00
48790;BME280;41718;51.980;5.734;2022-12-20T21:14:23;100654.78;;;8.47;100.00
48790;BME280;41718;51.980;5.734;2022-12-20T21:19:45;100664.13;;;8.42;100.00
48790;BME280;41718;51.980;5.734;2022-12-20T21:24:47;100659.81;;;8.41;100.00
48790;BME280;41718;51.980;5.734;2022-12-20T21:29:50;100654.69;;;8.43;100.00
48790;BME280;41718;51.980;5.734;2022-12-20T21:34:51;100654.75;;;8.46;100.00
48790;BME280;41718;51.980;5.734;2022-12-20T21:40:01;100648.59;;;8.39;100.00
48790;BME280;41718;51.980;5.734;2022-12-20T21:45:04;100643.50;;;8.42;100.00
48790;BME280;41718;51.980;5.734;2022-12-20T21:50:06;100649.50;;;8.41;100.00
48790;BME280;41718;51.980;5.734;2022-12-20T21:55:11;100652.09;;;8.41;100.00
48790;BME280;41718;51.980;5.734;2022-12-20T22:00:13;100653.78;;;8.41;100.00
48790;BME280;41718;51.980;5.734;2022-12-20T22:05:16;100652.94;;;8.42;100.00
48790;BME280;41718;51.980;5.734;2022-12-20T22:10:18;100660.66;;;8.40;100.00
48790;BME280;41718;51.980;5.734;2022-12-20T22:15:20;100657.97;;;8.36;100.00
48790;BME280;41718;51.980;5.734;2022-12-20T22:20:21;100642.50;;;8.36;100.00
48790;BME280;41718;51.980;5.734;2022-12-20T22:25:25;100656.13;;;8.32;100.00
48790;BME280;41718;51.980;5.734;2022-12-20T22:30:41;100662.16;;;8.32;100.00
48790;BME280;41718;51.980;5.734;2022-12-20T22:35:46;100656.09;;;8.29;100.00
48790;BME280;41718;51.980;5.734;2022-12-20T22:40:51;100667.22;;;8.28;100.00
48790;BME280;41718;51.980;5.734;2022-12-20T22:46:01;100664.56;;;8.23;100.00
48790;BME280;41718;51.980;5.734;2022-12-20T22:51:23;100670.50;;;8.20;100.00
48790;BME280;41718;51.980;5.734;2022-12-20T22:56:35;100666.16;;;8.18;100.00
48790;BME280;41718;51.980;5.734;2022-12-20T23:01:36;100665.31;;;8.17;100.00
48790;BME280;41718;51.980;5.734;2022-12-20T23:06:41;100659.22;;;8.15;100.00
48790;BME280;41718;51.980;5.734;2022-12-20T23:11:42;100653.97;;;8.11;100.00
48790;BME280;41718;51.980;5.734;2022-12-20T23:17:05;100657.34;;;8.07;100.00
48790;BME280;41718;51.980;5.734;2022-12-20T23:22:15;100666.72;;;8.05;100.00
48790;BME280;41718;51.980;5.734;2022-12-20T23:27:36;100673.53;;;8.01;100.00
48790;BME280;41718;51.980;5.734;2022-12-20T23:32:38;100673.47;;;8.00;100.00
48790;BME280;41718;51.980;5.734;2022-12-20T23:37:50;100681.19;;;8.00;100.00
48790;BME280;41718;51.980;5.734;2022-12-20T23:42:56;100680.25;;;7.94;100.00
48790;BME280;41718;51.980;5.734;2022-12-20T23:47:59;100680.13;;;7.90;100.00
48790;BME280;41718;51.980;5.734;2022-12-20T23:53:01;100680.97;;;7.89;100.00
48790;BME280;41718;51.980;5.734;2022-12-20T23:58:05;100675.84;;;7.89;100.00
